sensor_id;sensor_type;location;lat;lon;timestamp;P1;durP1;ratioP1;P2;durP2;ratioP2
36833;SDS011;48003;52.084;5.224;2023-08-12T00:00:04;9.31;;;5.2;;
36833;SDS011;48003;52.084;5.224;2023-08-12T00:01:43;7.4;;;5.0;;
36833;SDS011;48003;52.084;5.224;2023-08-12T00:03:19;9.1;;;4.7;;
36833;SDS011;48003;52.084;5.224;2023-08-12T00:06:31;7.8;;;5.11;;
36833;SDS011;48003;52.084;5.224;2023-08-12T00:08:07;8.1;;;4.61;;
36833;SDS011;48003;52.084;5.224;2023-08-12T00:09:43;8.5;;;5.0;;
36833;SDS011;48003;52.084;5.224;2023-08-12T00:12:55;10.4;;;5.11;;
36833;SDS011;48003;52.084;5.224;2023-08-12T00:14:31;8.71;;;5.2;;
36833;SDS011;48003;52.084;5.224;2023-08-12T00:16:07;8.2;;;4.7;;
36833;SDS011;48003;52.084;5.224;2023-08-12T00:19:20;7.4;;;5.2;;
36833;SDS011;48003;52.084;5.224;2023-08-12T00:20:56;7.7;;;5.2;;
36833;SDS011;48003;52.084;5.224;2023-08-12T00:22:32;9.9;;;5.4;;
36833;SDS011;48003;52.084;5.224;2023-08-12T00:25:44;9.1;;;5.5;;
36833;SDS011;48003;52.084;5.224;2023-08-12T00:27:20;8.6;;;5.7;;
36833;SDS011;48003;52.084;5.224;2023-08-12T00:28:56;9.81;;;5.2;;
36833;SDS011;48003;52.084;5.224;2023-08-12T00:30:33;8.4;;;5.11;;
36833;SDS011;48003;52.084;5.224;2023-08-12T00:33:46;12.4;;;6.1;;
36833;SDS011;48003;52.084;5.224;2023-08-12T00:35:23;12.4;;;6.0;;
36833;SDS011;48003;52.084;5.224;2023-08-12T00:36:59;11.1;;;6.5;;
36833;SDS011;48003;52.084;5.224;2023-08-12T00:40:12;9.21;;;5.8;;
36833;SDS011;48003;52.084;5.224;2023-08-12T00:41:49;11.7;;;6.4;;
36833;SDS011;48003;52.084;5.224;2023-08-12T00:43:25;12.2;;;6.7;;
36833;SDS011;48003;52.084;5.224;2023-08-12T00:46:38;9.81;;;6.0;;
36833;SDS011;48003;52.084;5.224;2023-08-12T00:48:16;13.2;;;7.3;;
36833;SDS011;48003;52.084;5.224;2023-08-12T00:49:53;11.3;;;7.2;;
36833;SDS011;48003;52.084;5.224;2023-08-12T00:51:30;15.5;;;7.7;;
36833;SDS011;48003;52.084;5.224;2023-08-12T00:54:43;11.3;;;7.4;;
36833;SDS011;48003;52.084;5.224;2023-08-12T00:56:20;12.3;;;7.3;;
36833;SDS011;48003;52.084;5.224;2023-08-12T00:57:57;11.8;;;7.6;;
36833;SDS011;48003;52.084;5.224;2023-08-12T01:01:11;12.8;;;8.2;;
36833;SDS011;48003;52.084;5.224;2023-08-12T01:02:47;10.7;;;7.8;;
36833;SDS011;48003;52.084;5.224;2023-08-12T01:04:24;9.9;;;7.3;;
36833;SDS011;48003;52.084;5.224;2023-08-12T01:06:01;13.9;;;7.7;;
36833;SDS011;48003;52.084;5.224;2023-08-12T01:09:14;15.4;;;7.6;;
36833;SDS011;48003;52.084;5.224;2023-08-12T01:10:52;12.3;;;7.7;;
36833;SDS011;48003;52.084;5.224;2023-08-12T01:12:40;19.11;;;8.31;;
36833;SDS011;48003;52.084;5.224;2023-08-12T01:14:22;12.1;;;7.8;;
36833;SDS011;48003;52.084;5.224;2023-08-12T01:17:43;14.3;;;8.71;;
36833;SDS011;48003;52.084;5.224;2023-08-12T01:19:21;11.4;;;7.7;;
36833;SDS011;48003;52.084;5.224;2023-08-12T01:21:08;13.5;;;7.9;;
36833;SDS011;48003;52.084;5.224;2023-08-12T01:22:52;13.3;;;7.8;;
36833;SDS011;48003;52.084;5.224;2023-08-12T01:26:11;13.9;;;7.7;;
36833;SDS011;48003;52.084;5.224;2023-08-12T01:27:47;11.6;;;7.5;;
36833;SDS011;48003;52.084;5.224;2023-08-12T01:29:23;14.4;;;8.1;;
36833;SDS011;48003;52.084;5.224;2023-08-12T01:32:53;13.5;;;8.1;;
36833;SDS011;48003;52.084;5.224;2023-08-12T01:34:46;11.6;;;8.1;;
36833;SDS011;48003;52.084;5.224;2023-08-12T01:36:28;13.1;;;8.31;;
36833;SDS011;48003;52.084;5.224;2023-08-12T01:38:09;16.2;;;8.4;;
36833;SDS011;48003;52.084;5.224;2023-08-12T01:39:47;15.7;;;8.2;;
36833;SDS011;48003;52.084;5.224;2023-08-12T01:43:02;13.8;;;8.1;;
36833;SDS011;48003;52.084;5.224;2023-08-12T01:44:39;13.6;;;7.6;;
36833;SDS011;48003;52.084;5.224;2023-08-12T01:46:15;13.8;;;7.9;;
36833;SDS011;48003;52.084;5.224;2023-08-12T01:47:51;14.3;;;7.5;;
36833;SDS011;48003;52.084;5.224;2023-08-12T01:51:03;14.1;;;7.8;;
36833;SDS011;48003;52.084;5.224;2023-08-12T01:52:39;11.5;;;7.5;;
36833;SDS011;48003;52.084;5.224;2023-08-12T01:54:16;10.6;;;7.4;;
36833;SDS011;48003;52.084;5.224;2023-08-12T01:57:28;13.2;;;7.8;;
36833;SDS011;48003;52.084;5.224;2023-08-12T01:59:04;15.3;;;7.5;;
36833;SDS011;48003;52.084;5.224;2023-08-12T02:00:40;17.2;;;8.5;;
36833;SDS011;48003;52.084;5.224;2023-08-12T02:03:52;12.0;;;7.7;;
36833;SDS011;48003;52.084;5.224;2023-08-12T02:05:28;13.1;;;8.1;;
36833;SDS011;48003;52.084;5.224;2023-08-12T02:07:05;13.0;;;8.0;;
36833;SDS011;48003;52.084;5.224;2023-08-12T02:10:16;13.2;;;8.0;;
36833;SDS011;48003;52.084;5.224;2023-08-12T02:11:52;14.8;;;8.5;;
36833;SDS011;48003;52.084;5.224;2023-08-12T02:13:29;14.7;;;8.4;;
36833;SDS011;48003;52.084;5.224;2023-08-12T02:15:05;13.6;;;7.9;;
36833;SDS011;48003;52.084;5.224;2023-08-12T02:18:18;15.9;;;8.81;;
36833;SDS011;48003;52.084;5.224;2023-08-12T02:19:54;14.5;;;9.0;;
36833;SDS011;48003;52.084;5.224;2023-08-12T02:21:31;13.0;;;8.5;;
36833;SDS011;48003;52.084;5.224;2023-08-12T02:24:43;15.5;;;9.31;;
36833;SDS011;48003;52.084;5.224;2023-08-12T02:26:19;17.61;;;9.6;;
36833;SDS011;48003;52.084;5.224;2023-08-12T02:27:56;16.7;;;9.71;;
36833;SDS011;48003;52.084;5.224;2023-08-12T02:31:08;16.9;;;10.4;;
36833;SDS011;48003;52.084;5.224;2023-08-12T02:32:44;14.5;;;10.1;;
36833;SDS011;48003;52.084;5.224;2023-08-12T02:34:20;18.0;;;11.0;;
36833;SDS011;48003;52.084;5.224;2023-08-12T02:35:57;17.2;;;11.0;;
36833;SDS011;48003;52.084;5.224;2023-08-12T02:39:09;18.0;;;11.5;;
36833;SDS011;48003;52.084;5.224;2023-08-12T02:40:47;19.91;;;11.4;;
36833;SDS011;48003;52.084;5.224;2023-08-12T02:42:23;18.8;;;11.4;;
36833;SDS011;48003;52.084;5.224;2023-08-12T02:45:35;18.11;;;11.7;;
36833;SDS011;48003;52.084;5.224;2023-08-12T02:47:11;18.91;;;11.5;;
36833;SDS011;48003;52.084;5.224;2023-08-12T02:48:47;17.8;;;12.1;;
36833;SDS011;48003;52.084;5.224;2023-08-12T02:51:59;20.8;;;12.3;;
36833;SDS011;48003;52.084;5.224;2023-08-12T02:53:36;15.8;;;11.9;;
36833;SDS011;48003;52.084;5.224;2023-08-12T02:55:12;19.0;;;12.0;;
36833;SDS011;48003;52.084;5.224;2023-08-12T02:58:26;17.91;;;12.2;;
36833;SDS011;48003;52.084;5.224;2023-08-12T03:00:02;19.0;;;12.7;;
36833;SDS011;48003;52.084;5.224;2023-08-12T03:01:40;18.11;;;12.8;;
36833;SDS011;48003;52.084;5.224;2023-08-12T03:03:17;22.2;;;13.3;;
36833;SDS011;48003;52.084;5.224;2023-08-12T03:06:29;20.7;;;13.2;;
36833;SDS011;48003;52.084;5.224;2023-08-12T03:08:06;20.6;;;14.4;;
36833;SDS011;48003;52.084;5.224;2023-08-12T03:09:42;25.1;;;14.1;;
36833;SDS011;48003;52.084;5.224;2023-08-12T03:12:54;23.1;;;15.0;;
36833;SDS011;48003;52.084;5.224;2023-08-12T03:14:31;24.7;;;14.8;;
36833;SDS011;48003;52.084;5.224;2023-08-12T03:16:10;21.5;;;14.7;;
36833;SDS011;48003;52.084;5.224;2023-08-12T03:17:47;18.61;;;13.6;;
36833;SDS011;48003;52.084;5.224;2023-08-12T03:20:59;18.61;;;13.6;;
36833;SDS011;48003;52.084;5.224;2023-08-12T03:22:36;19.91;;;13.6;;
36833;SDS011;48003;52.084;5.224;2023-08-12T03:24:13;22.9;;;14.2;;
36833;SDS011;48003;52.084;5.224;2023-08-12T03:27:25;19.41;;;13.9;;
36833;SDS011;48003;52.084;5.224;2023-08-12T03:29:01;19.8;;;13.9;;
36833;SDS011;48003;52.084;5.224;2023-08-12T03:30:37;20.2;;;14.2;;
36833;SDS011;48003;52.084;5.224;2023-08-12T03:33:49;21.8;;;14.2;;
36833;SDS011;48003;52.084;5.224;2023-08-12T03:35:25;22.6;;;14.6;;
36833;SDS011;48003;52.084;5.224;2023-08-12T03:37:01;24.0;;;13.7;;
36833;SDS011;48003;52.084;5.224;2023-08-12T03:40:15;20.0;;;14.6;;
36833;SDS011;48003;52.084;5.224;2023-08-12T03:41:51;22.2;;;15.1;;
36833;SDS011;48003;52.084;5.224;2023-08-12T03:43:27;22.1;;;14.5;;
36833;SDS011;48003;52.084;5.224;2023-08-12T03:45:03;22.0;;;13.9;;
36833;SDS011;48003;52.084;5.224;2023-08-12T03:48:16;18.61;;;13.5;;
36833;SDS011;48003;52.084;5.224;2023-08-12T03:49:52;19.0;;;13.3;;
36833;SDS011;48003;52.084;5.224;2023-08-12T03:51:29;19.8;;;12.9;;
36833;SDS011;48003;52.084;5.224;2023-08-12T03:54:41;18.2;;;12.7;;
36833;SDS011;48003;52.084;5.224;2023-08-12T03:56:18;18.2;;;13.0;;
36833;SDS011;48003;52.084;5.224;2023-08-12T03:57:54;19.8;;;13.5;;
36833;SDS011;48003;52.084;5.224;2023-08-12T04:01:06;19.8;;;13.5;;
36833;SDS011;48003;52.084;5.224;2023-08-12T04:02:42;18.8;;;12.3;;
36833;SDS011;48003;52.084;5.224;2023-08-12T04:04:18;17.61;;;12.0;;
36833;SDS011;48003;52.084;5.224;2023-08-12T04:05:54;17.91;;;11.5;;
36833;SDS011;48003;52.084;5.224;2023-08-12T04:09:07;19.11;;;11.9;;
36833;SDS011;48003;52.084;5.224;2023-08-12T04:10:44;18.7;;;12.3;;
36833;SDS011;48003;52.084;5.224;2023-08-12T04:12:21;18.0;;;11.0;;
36833;SDS011;48003;52.084;5.224;2023-08-12T04:15:33;17.8;;;11.5;;
36833;SDS011;48003;52.084;5.224;2023-08-12T04:17:09;17.2;;;11.1;;
36833;SDS011;48003;52.084;5.224;2023-08-12T04:18:45;15.7;;;10.7;;
36833;SDS011;48003;52.084;5.224;2023-08-12T04:21:57;18.41;;;11.3;;
36833;SDS011;48003;52.084;5.224;2023-08-12T04:23:33;16.0;;;10.4;;
36833;SDS011;48003;52.084;5.224;2023-08-12T04:25:10;16.61;;;10.6;;
36833;SDS011;48003;52.084;5.224;2023-08-12T04:28:22;16.61;;;10.0;;
36833;SDS011;48003;52.084;5.224;2023-08-12T04:29:58;17.3;;;10.6;;
36833;SDS011;48003;52.084;5.224;2023-08-12T04:31:34;14.6;;;9.9;;
36833;SDS011;48003;52.084;5.224;2023-08-12T04:33:10;17.8;;;10.6;;
36833;SDS011;48003;52.084;5.224;2023-08-12T04:36:24;17.61;;;11.2;;
36833;SDS011;48003;52.084;5.224;2023-08-12T04:38:00;16.2;;;10.3;;
36833;SDS011;48003;52.084;5.224;2023-08-12T04:39:37;19.0;;;10.6;;
36833;SDS011;48003;52.084;5.224;2023-08-12T04:42:49;19.8;;;10.4;;
36833;SDS011;48003;52.084;5.224;2023-08-12T04:44:26;15.6;;;10.4;;
36833;SDS011;48003;52.084;5.224;2023-08-12T04:46:02;18.0;;;10.3;;
36833;SDS011;48003;52.084;5.224;2023-08-12T04:49:14;16.5;;;9.9;;
36833;SDS011;48003;52.084;5.224;2023-08-12T04:50:50;15.3;;;10.3;;
36833;SDS011;48003;52.084;5.224;2023-08-12T04:52:26;18.7;;;10.5;;
36833;SDS011;48003;52.084;5.224;2023-08-12T04:54:02;16.9;;;10.0;;
36833;SDS011;48003;52.084;5.224;2023-08-12T04:57:14;17.91;;;10.1;;
36833;SDS011;48003;52.084;5.224;2023-08-12T04:58:51;14.1;;;9.71;;
36833;SDS011;48003;52.084;5.224;2023-08-12T05:00:27;15.7;;;10.3;;
36833;SDS011;48003;52.084;5.224;2023-08-12T05:03:39;14.7;;;10.3;;
36833;SDS011;48003;52.084;5.224;2023-08-12T05:05:15;14.5;;;9.9;;
36833;SDS011;48003;52.084;5.224;2023-08-12T05:06:51;15.8;;;10.5;;
36833;SDS011;48003;52.084;5.224;2023-08-12T05:10:04;15.1;;;10.4;;
36833;SDS011;48003;52.084;5.224;2023-08-12T05:11:40;17.2;;;10.5;;
36833;SDS011;48003;52.084;5.224;2023-08-12T05:13:17;16.0;;;10.1;;
36833;SDS011;48003;52.084;5.224;2023-08-12T05:16:29;14.7;;;10.1;;
36833;SDS011;48003;52.084;5.224;2023-08-12T05:18:05;18.0;;;10.5;;
36833;SDS011;48003;52.084;5.224;2023-08-12T05:19:42;18.5;;;10.6;;
36833;SDS011;48003;52.084;5.224;2023-08-12T05:21:18;16.8;;;10.5;;
36833;SDS011;48003;52.084;5.224;2023-08-12T05:24:30;19.3;;;11.2;;
36833;SDS011;48003;52.084;5.224;2023-08-12T05:26:06;17.0;;;10.21;;
36833;SDS011;48003;52.084;5.224;2023-08-12T05:27:42;14.6;;;10.0;;
36833;SDS011;48003;52.084;5.224;2023-08-12T05:30:55;16.9;;;10.5;;
36833;SDS011;48003;52.084;5.224;2023-08-12T05:32:31;16.61;;;10.1;;
36833;SDS011;48003;52.084;5.224;2023-08-12T05:34:07;13.8;;;9.9;;
36833;SDS011;48003;52.084;5.224;2023-08-12T05:37:23;19.11;;;10.7;;
36833;SDS011;48003;52.084;5.224;2023-08-12T05:38:59;20.2;;;10.3;;
36833;SDS011;48003;52.084;5.224;2023-08-12T05:40:35;15.8;;;11.1;;
36833;SDS011;48003;52.084;5.224;2023-08-12T05:42:11;13.3;;;9.81;;
36833;SDS011;48003;52.084;5.224;2023-08-12T05:45:24;16.8;;;10.6;;
36833;SDS011;48003;52.084;5.224;2023-08-12T05:47:01;15.1;;;10.21;;
36833;SDS011;48003;52.084;5.224;2023-08-12T05:48:37;15.5;;;10.5;;
36833;SDS011;48003;52.084;5.224;2023-08-12T05:51:49;15.5;;;10.1;;
36833;SDS011;48003;52.084;5.224;2023-08-12T05:53:25;16.11;;;10.4;;
36833;SDS011;48003;52.084;5.224;2023-08-12T05:55:01;15.4;;;9.9;;
36833;SDS011;48003;52.084;5.224;2023-08-12T05:58:13;17.8;;;10.1;;
36833;SDS011;48003;52.084;5.224;2023-08-12T05:59:49;17.3;;;9.31;;
36833;SDS011;48003;52.084;5.224;2023-08-12T06:01:25;13.1;;;9.4;;
36833;SDS011;48003;52.084;5.224;2023-08-12T06:04:38;12.5;;;8.81;;
36833;SDS011;48003;52.084;5.224;2023-08-12T06:06:14;14.5;;;8.9;;
36833;SDS011;48003;52.084;5.224;2023-08-12T06:07:50;14.2;;;9.31;;
36833;SDS011;48003;52.084;5.224;2023-08-12T06:09:26;14.8;;;9.1;;
36833;SDS011;48003;52.084;5.224;2023-08-12T06:12:38;14.2;;;8.81;;
36833;SDS011;48003;52.084;5.224;2023-08-12T06:14:14;12.2;;;8.5;;
36833;SDS011;48003;52.084;5.224;2023-08-12T06:15:50;11.8;;;8.6;;
36833;SDS011;48003;52.084;5.224;2023-08-12T06:19:03;12.1;;;8.4;;
36833;SDS011;48003;52.084;5.224;2023-08-12T06:20:39;12.8;;;9.31;;
36833;SDS011;48003;52.084;5.224;2023-08-12T06:22:16;14.0;;;9.0;;
36833;SDS011;48003;52.084;5.224;2023-08-12T06:25:28;15.2;;;9.0;;
36833;SDS011;48003;52.084;5.224;2023-08-12T06:27:04;13.5;;;9.31;;
36833;SDS011;48003;52.084;5.224;2023-08-12T06:28:41;18.41;;;10.5;;
36833;SDS011;48003;52.084;5.224;2023-08-12T06:30:17;14.4;;;9.31;;
36833;SDS011;48003;52.084;5.224;2023-08-12T06:33:30;15.0;;;9.81;;
36833;SDS011;48003;52.084;5.224;2023-08-12T06:35:06;14.2;;;9.31;;
36833;SDS011;48003;52.084;5.224;2023-08-12T06:36:43;13.5;;;8.81;;
36833;SDS011;48003;52.084;5.224;2023-08-12T06:39:55;12.1;;;8.4;;
36833;SDS011;48003;52.084;5.224;2023-08-12T06:41:31;10.6;;;7.9;;
36833;SDS011;48003;52.084;5.224;2023-08-12T06:43:07;10.0;;;7.8;;
36833;SDS011;48003;52.084;5.224;2023-08-12T06:46:20;12.1;;;8.2;;
36833;SDS011;48003;52.084;5.224;2023-08-12T06:47:56;9.5;;;7.0;;
36833;SDS011;48003;52.084;5.224;2023-08-12T06:49:33;10.5;;;6.8;;
36833;SDS011;48003;52.084;5.224;2023-08-12T06:52:45;10.0;;;6.9;;
36833;SDS011;48003;52.084;5.224;2023-08-12T06:54:21;9.81;;;6.7;;
36833;SDS011;48003;52.084;5.224;2023-08-12T06:55:57;9.5;;;7.3;;
36833;SDS011;48003;52.084;5.224;2023-08-12T06:57:33;10.21;;;6.7;;
36833;SDS011;48003;52.084;5.224;2023-08-12T07:00:45;8.2;;;6.8;;
36833;SDS011;48003;52.084;5.224;2023-08-12T07:02:22;7.3;;;6.3;;
36833;SDS011;48003;52.084;5.224;2023-08-12T07:03:58;8.5;;;6.3;;
36833;SDS011;48003;52.084;5.224;2023-08-12T07:07:10;8.71;;;5.9;;
36833;SDS011;48003;52.084;5.224;2023-08-12T07:08:46;6.8;;;5.4;;
36833;SDS011;48003;52.084;5.224;2023-08-12T07:10:22;10.1;;;7.4;;
36833;SDS011;48003;52.084;5.224;2023-08-12T07:13:34;11.5;;;7.1;;
36833;SDS011;48003;52.084;5.224;2023-08-12T07:15:10;7.1;;;5.8;;
36833;SDS011;48003;52.084;5.224;2023-08-12T07:16:46;7.1;;;4.91;;
36833;SDS011;48003;52.084;5.224;2023-08-12T07:18:23;6.8;;;5.2;;
36833;SDS011;48003;52.084;5.224;2023-08-12T07:21:35;7.7;;;5.8;;
36833;SDS011;48003;52.084;5.224;2023-08-12T07:23:10;7.1;;;5.4;;
36833;SDS011;48003;52.084;5.224;2023-08-12T07:24:47;7.3;;;5.2;;
36833;SDS011;48003;52.084;5.224;2023-08-12T07:27:59;7.2;;;5.3;;
36833;SDS011;48003;52.084;5.224;2023-08-12T07:29:35;7.1;;;5.4;;
36833;SDS011;48003;52.084;5.224;2023-08-12T07:31:11;6.5;;;5.11;;
36833;SDS011;48003;52.084;5.224;2023-08-12T07:34:24;6.7;;;5.8;;
36833;SDS011;48003;52.084;5.224;2023-08-12T07:36:00;6.3;;;5.5;;
36833;SDS011;48003;52.084;5.224;2023-08-12T07:37:37;6.6;;;5.2;;
36833;SDS011;48003;52.084;5.224;2023-08-12T07:40:49;5.9;;;5.3;;
36833;SDS011;48003;52.084;5.224;2023-08-12T07:42:25;5.5;;;4.91;;
36833;SDS011;48003;52.084;5.224;2023-08-12T07:44:03;6.2;;;4.7;;
36833;SDS011;48003;52.084;5.224;2023-08-12T07:45:40;6.5;;;4.7;;
36833;SDS011;48003;52.084;5.224;2023-08-12T07:48:51;5.2;;;4.5;;
36833;SDS011;48003;52.084;5.224;2023-08-12T07:50:29;5.2;;;4.61;;
36833;SDS011;48003;52.084;5.224;2023-08-12T07:56:54;5.4;;;4.0;;
36833;SDS011;48003;52.084;5.224;2023-08-12T07:58:30;5.4;;;4.2;;
36833;SDS011;48003;52.084;5.224;2023-08-12T08:01:43;4.2;;;3.8;;
36833;SDS011;48003;52.084;5.224;2023-08-12T08:03:20;5.8;;;4.2;;
36833;SDS011;48003;52.084;5.224;2023-08-12T08:04:56;5.5;;;4.41;;
36833;SDS011;48003;52.084;5.224;2023-08-12T08:06:32;4.91;;;4.0;;
36833;SDS011;48003;52.084;5.224;2023-08-12T08:09:44;4.1;;;3.7;;
36833;SDS011;48003;52.084;5.224;2023-08-12T08:11:20;4.2;;;3.6;;
36833;SDS011;48003;52.084;5.224;2023-08-12T08:12:56;4.8;;;3.6;;
36833;SDS011;48003;52.084;5.224;2023-08-12T08:16:08;5.3;;;3.9;;
36833;SDS011;48003;52.084;5.224;2023-08-12T08:17:44;4.41;;;3.4;;
36833;SDS011;48003;52.084;5.224;2023-08-12T08:19:20;3.9;;;3.2;;
36833;SDS011;48003;52.084;5.224;2023-08-12T08:22:33;3.6;;;3.1;;
36833;SDS011;48003;52.084;5.224;2023-08-12T08:24:09;3.7;;;3.2;;
36833;SDS011;48003;52.084;5.224;2023-08-12T08:25:45;3.4;;;2.9;;
36833;SDS011;48003;52.084;5.224;2023-08-12T08:28:57;2.21;;;2.0;;
36833;SDS011;48003;52.084;5.224;2023-08-12T08:30:33;2.0;;;1.7;;
36833;SDS011;48003;52.084;5.224;2023-08-12T08:32:09;1.7;;;1.4;;
36833;SDS011;48003;52.084;5.224;2023-08-12T08:33:45;1.8;;;1.4;;
36833;SDS011;48003;52.084;5.224;2023-08-12T08:36:58;2.1;;;1.5;;
36833;SDS011;48003;52.084;5.224;2023-08-12T08:38:34;1.6;;;1.2;;
36833;SDS011;48003;52.084;5.224;2023-08-12T08:40:12;1.6;;;1.2;;
36833;SDS011;48003;52.084;5.224;2023-08-12T08:43:24;1.9;;;1.4;;
36833;SDS011;48003;52.084;5.224;2023-08-12T08:45:02;2.31;;;1.4;;
36833;SDS011;48003;52.084;5.224;2023-08-12T08:46:49;2.7;;;1.4;;
36833;SDS011;48003;52.084;5.224;2023-08-12T08:48:28;3.9;;;1.5;;
36833;SDS011;48003;52.084;5.224;2023-08-12T08:51:42;5.2;;;1.5;;
36833;SDS011;48003;52.084;5.224;2023-08-12T08:53:21;6.8;;;1.7;;
36833;SDS011;48003;52.084;5.224;2023-08-12T08:54:57;4.1;;;1.4;;
36833;SDS011;48003;52.084;5.224;2023-08-12T08:58:13;2.8;;;1.2;;
36833;SDS011;48003;52.084;5.224;2023-08-12T08:59:49;6.7;;;1.6;;
36833;SDS011;48003;52.084;5.224;2023-08-12T09:01:26;4.8;;;1.6;;
36833;SDS011;48003;52.084;5.224;2023-08-12T09:03:04;4.41;;;1.5;;
36833;SDS011;48003;52.084;5.224;2023-08-12T09:06:18;4.5;;;1.4;;
36833;SDS011;48003;52.084;5.224;2023-08-12T09:07:55;6.7;;;1.5;;
36833;SDS011;48003;52.084;5.224;2023-08-12T09:09:32;5.4;;;1.8;;
36833;SDS011;48003;52.084;5.224;2023-08-12T09:12:48;6.4;;;1.7;;
36833;SDS011;48003;52.084;5.224;2023-08-12T09:14:24;6.1;;;1.5;;
36833;SDS011;48003;52.084;5.224;2023-08-12T09:16:00;5.7;;;1.7;;
36833;SDS011;48003;52.084;5.224;2023-08-12T09:19:13;7.8;;;1.8;;
36833;SDS011;48003;52.084;5.224;2023-08-12T09:20:50;7.2;;;1.7;;
36833;SDS011;48003;52.084;5.224;2023-08-12T09:22:26;5.2;;;1.6;;
36833;SDS011;48003;52.084;5.224;2023-08-12T09:24:03;6.4;;;1.9;;
36833;SDS011;48003;52.084;5.224;2023-08-12T09:27:18;5.2;;;1.9;;
36833;SDS011;48003;52.084;5.224;2023-08-12T09:28:54;4.91;;;1.6;;
36833;SDS011;48003;52.084;5.224;2023-08-12T09:30:30;4.2;;;1.9;;
36833;SDS011;48003;52.084;5.224;2023-08-12T09:33:46;5.6;;;2.0;;
36833;SDS011;48003;52.084;5.224;2023-08-12T09:35:22;5.9;;;2.0;;
36833;SDS011;48003;52.084;5.224;2023-08-12T09:36:58;5.0;;;1.9;;
36833;SDS011;48003;52.084;5.224;2023-08-12T09:38:35;6.2;;;2.21;;
36833;SDS011;48003;52.084;5.224;2023-08-12T09:41:48;8.31;;;2.7;;
36833;SDS011;48003;52.084;5.224;2023-08-12T09:43:27;5.2;;;2.4;;
36833;SDS011;48003;52.084;5.224;2023-08-12T09:45:04;6.8;;;2.4;;
36833;SDS011;48003;52.084;5.224;2023-08-12T09:48:18;7.8;;;2.6;;
36833;SDS011;48003;52.084;5.224;2023-08-12T09:49:54;5.7;;;2.1;;
36833;SDS011;48003;52.084;5.224;2023-08-12T09:51:33;3.8;;;1.8;;
36833;SDS011;48003;52.084;5.224;2023-08-12T09:53:10;7.0;;;2.1;;
36833;SDS011;48003;52.084;5.224;2023-08-12T09:56:25;4.61;;;1.7;;
36833;SDS011;48003;52.084;5.224;2023-08-12T09:58:09;5.0;;;2.0;;
36833;SDS011;48003;52.084;5.224;2023-08-12T09:59:46;7.6;;;2.0;;
36833;SDS011;48003;52.084;5.224;2023-08-12T10:03:00;5.7;;;1.9;;
36833;SDS011;48003;52.084;5.224;2023-08-12T10:04:38;5.11;;;1.7;;
36833;SDS011;48003;52.084;5.224;2023-08-12T10:06:17;10.4;;;2.1;;
36833;SDS011;48003;52.084;5.224;2023-08-12T10:07:54;5.3;;;1.8;;
36833;SDS011;48003;52.084;5.224;2023-08-12T10:11:08;4.7;;;1.8;;
36833;SDS011;48003;52.084;5.224;2023-08-12T10:12:46;5.8;;;2.0;;
36833;SDS011;48003;52.084;5.224;2023-08-12T10:14:23;7.1;;;2.1;;
36833;SDS011;48003;52.084;5.224;2023-08-12T10:17:36;6.5;;;1.9;;
36833;SDS011;48003;52.084;5.224;2023-08-12T10:19:13;5.9;;;1.8;;
36833;SDS011;48003;52.084;5.224;2023-08-12T10:20:52;6.0;;;2.0;;
36833;SDS011;48003;52.084;5.224;2023-08-12T10:22:32;5.4;;;1.9;;
36833;SDS011;48003;52.084;5.224;2023-08-12T10:25:46;8.9;;;2.21;;
36833;SDS011;48003;52.084;5.224;2023-08-12T10:27:25;6.6;;;2.1;;
36833;SDS011;48003;52.084;5.224;2023-08-12T10:29:02;6.1;;;2.31;;
36833;SDS011;48003;52.084;5.224;2023-08-12T10:32:16;8.5;;;2.31;;
36833;SDS011;48003;52.084;5.224;2023-08-12T10:33:52;9.81;;;2.21;;
36833;SDS011;48003;52.084;5.224;2023-08-12T10:35:40;7.8;;;2.31;;
36833;SDS011;48003;52.084;5.224;2023-08-12T10:37:17;7.6;;;2.1;;
36833;SDS011;48003;52.084;5.224;2023-08-12T10:40:31;6.7;;;1.9;;
36833;SDS011;48003;52.084;5.224;2023-08-12T10:42:08;7.0;;;2.4;;
36833;SDS011;48003;52.084;5.224;2023-08-12T10:43:51;6.0;;;2.31;;
36833;SDS011;48003;52.084;5.224;2023-08-12T10:45:40;6.4;;;2.21;;
36833;SDS011;48003;52.084;5.224;2023-08-12T10:48:58;8.1;;;2.4;;
36833;SDS011;48003;52.084;5.224;2023-08-12T10:50:43;5.8;;;2.0;;
36833;SDS011;48003;52.084;5.224;2023-08-12T10:52:27;9.71;;;5.2;;
36833;SDS011;48003;52.084;5.224;2023-08-12T10:54:10;9.0;;;3.6;;
36833;SDS011;48003;52.084;5.224;2023-08-12T10:57:34;5.6;;;1.7;;
36833;SDS011;48003;52.084;5.224;2023-08-12T10:59:46;7.7;;;1.8;;
36833;SDS011;48003;52.084;5.224;2023-08-12T11:01:24;6.6;;;1.7;;
36833;SDS011;48003;52.084;5.224;2023-08-12T11:03:00;4.5;;;1.8;;
36833;SDS011;48003;52.084;5.224;2023-08-12T11:04:41;8.1;;;2.0;;
36833;SDS011;48003;52.084;5.224;2023-08-12T11:07:56;5.2;;;1.9;;
36833;SDS011;48003;52.084;5.224;2023-08-12T11:09:34;5.2;;;1.7;;
36833;SDS011;48003;52.084;5.224;2023-08-12T11:11:18;7.9;;;1.9;;
36833;SDS011;48003;52.084;5.224;2023-08-12T11:12:56;7.7;;;1.9;;
36833;SDS011;48003;52.084;5.224;2023-08-12T11:16:31;6.9;;;1.8;;
36833;SDS011;48003;52.084;5.224;2023-08-12T11:18:10;4.91;;;1.8;;
36833;SDS011;48003;52.084;5.224;2023-08-12T11:19:49;6.4;;;2.0;;
36833;SDS011;48003;52.084;5.224;2023-08-12T11:21:25;4.91;;;2.0;;
36833;SDS011;48003;52.084;5.224;2023-08-12T11:24:40;6.6;;;1.7;;
36833;SDS011;48003;52.084;5.224;2023-08-12T11:26:16;6.9;;;1.7;;
36833;SDS011;48003;52.084;5.224;2023-08-12T11:27:52;7.4;;;2.1;;
36833;SDS011;48003;52.084;5.224;2023-08-12T11:29:28;8.6;;;1.9;;
36833;SDS011;48003;52.084;5.224;2023-08-12T11:32:41;6.7;;;1.8;;
36833;SDS011;48003;52.084;5.224;2023-08-12T11:34:18;4.5;;;1.7;;
36833;SDS011;48003;52.084;5.224;2023-08-12T11:35:54;6.8;;;1.9;;
36833;SDS011;48003;52.084;5.224;2023-08-12T11:39:06;7.8;;;2.1;;
36833;SDS011;48003;52.084;5.224;2023-08-12T11:40:43;5.4;;;1.7;;
36833;SDS011;48003;52.084;5.224;2023-08-12T11:42:19;4.1;;;1.4;;
36833;SDS011;48003;52.084;5.224;2023-08-12T11:45:31;6.4;;;1.7;;
36833;SDS011;48003;52.084;5.224;2023-08-12T11:47:08;5.7;;;1.7;;
36833;SDS011;48003;52.084;5.224;2023-08-12T11:48:44;5.5;;;1.9;;
36833;SDS011;48003;52.084;5.224;2023-08-12T11:50:20;5.3;;;1.5;;
36833;SDS011;48003;52.084;5.224;2023-08-12T11:53:36;5.3;;;1.7;;
36833;SDS011;48003;52.084;5.224;2023-08-12T11:55:12;6.8;;;1.6;;
36833;SDS011;48003;52.084;5.224;2023-08-12T11:56:49;6.5;;;1.8;;
36833;SDS011;48003;52.084;5.224;2023-08-12T12:00:02;6.5;;;1.9;;
36833;SDS011;48003;52.084;5.224;2023-08-12T12:01:39;7.3;;;1.9;;
36833;SDS011;48003;52.084;5.224;2023-08-12T12:03:16;5.4;;;1.7;;
36833;SDS011;48003;52.084;5.224;2023-08-12T12:06:30;5.9;;;1.4;;
36833;SDS011;48003;52.084;5.224;2023-08-12T12:08:07;8.5;;;1.7;;
36833;SDS011;48003;52.084;5.224;2023-08-12T12:09:43;8.31;;;1.8;;
36833;SDS011;48003;52.084;5.224;2023-08-12T12:11:19;7.4;;;1.8;;
36833;SDS011;48003;52.084;5.224;2023-08-12T12:14:32;4.2;;;1.4;;
36833;SDS011;48003;52.084;5.224;2023-08-12T12:16:11;7.2;;;1.5;;
36833;SDS011;48003;52.084;5.224;2023-08-12T12:17:48;5.11;;;1.3;;
36833;SDS011;48003;52.084;5.224;2023-08-12T12:21:03;6.6;;;1.6;;
36833;SDS011;48003;52.084;5.224;2023-08-12T12:22:40;6.0;;;1.5;;
36833;SDS011;48003;52.084;5.224;2023-08-12T12:24:18;5.4;;;1.4;;
36833;SDS011;48003;52.084;5.224;2023-08-12T12:25:57;7.1;;;1.8;;
36833;SDS011;48003;52.084;5.224;2023-08-12T12:29:10;4.5;;;1.5;;
36833;SDS011;48003;52.084;5.224;2023-08-12T12:30:46;9.5;;;3.6;;
36833;SDS011;48003;52.084;5.224;2023-08-12T12:32:22;8.9;;;2.21;;
36833;SDS011;48003;52.084;5.224;2023-08-12T12:35:34;8.81;;;2.9;;
36833;SDS011;48003;52.084;5.224;2023-08-12T12:37:11;6.0;;;1.8;;
36833;SDS011;48003;52.084;5.224;2023-08-12T12:38:47;5.7;;;1.7;;
36833;SDS011;48003;52.084;5.224;2023-08-12T12:41:59;7.7;;;2.0;;
36833;SDS011;48003;52.084;5.224;2023-08-12T12:43:35;7.9;;;2.1;;
36833;SDS011;48003;52.084;5.224;2023-08-12T12:45:11;9.1;;;2.21;;
36833;SDS011;48003;52.084;5.224;2023-08-12T12:48:24;8.2;;;1.8;;
36833;SDS011;48003;52.084;5.224;2023-08-12T12:49:59;5.6;;;1.8;;